Terminal Aerodrome Forecast
Issued by NWS Tulsa, OK

Home | Current Version | Previous Version | Text Only | Print | Product List | Glossary On
Versions: 1 2 3 4 5 6 7 8 9 10 11 12
338
FTUS44 KTSA 071120
TAFFSM
TAF
KFSM 071120Z 0712/0812 00000KT P6SM SKC
     FM071500 23005KT P6SM SCT250
     FM072000 26011KT P6SM SCT250
     FM080100 31012KT P6SM SCT250=

USA.gov is the U.S. government's official web portal to all federal, state and local government web resources and services.